sensor_id;sensor_type;location;lat;lon;timestamp;temperature;humidity
79467;SHT30;68933;49.726;9.226;2023-06-05T00:01:09;15.2;49
79467;SHT30;68933;49.726;9.226;2023-06-05T00:03:22;15.2;49
79467;SHT30;68933;49.726;9.226;2023-06-05T00:05:35;15.1;49
79467;SHT30;68933;49.726;9.226;2023-06-05T00:07:48;15.1;49
79467;SHT30;68933;49.726;9.226;2023-06-05T00:10:01;14.9;51
79467;SHT30;68933;49.726;9.226;2023-06-05T00:12:14;14.9;51
79467;SHT30;68933;49.726;9.226;2023-06-05T00:14:27;14.9;49
79467;SHT30;68933;49.726;9.226;2023-06-05T00:16:40;14.9;49
79467;SHT30;68933;49.726;9.226;2023-06-05T00:18:53;14.9;51
79467;SHT30;68933;49.726;9.226;2023-06-05T00:21:06;14.9;51
79467;SHT30;68933;49.726;9.226;2023-06-05T00:23:19;14.9;51
79467;SHT30;68933;49.726;9.226;2023-06-05T00:25:32;14.9;51
79467;SHT30;68933;49.726;9.226;2023-06-05T00:27:45;14.9;51
79467;SHT30;68933;49.726;9.226;2023-06-05T00:29:58;14.9;51
79467;SHT30;68933;49.726;9.226;2023-06-05T00:32:11;14.9;51
79467;SHT30;68933;49.726;9.226;2023-06-05T00:34:24;14.8;51
79467;SHT30;68933;49.726;9.226;2023-06-05T00:36:37;14.8;51
79467;SHT30;68933;49.726;9.226;2023-06-05T00:38:50;14.8;51
79467;SHT30;68933;49.726;9.226;2023-06-05T00:41:03;14.8;51
79467;SHT30;68933;49.726;9.226;2023-06-05T00:43:16;14.7;51
79467;SHT30;68933;49.726;9.226;2023-06-05T00:45:29;14.7;51
79467;SHT30;68933;49.726;9.226;2023-06-05T00:47:42;14.7;51
79467;SHT30;68933;49.726;9.226;2023-06-05T00:49:55;14.6;51
79467;SHT30;68933;49.726;9.226;2023-06-05T00:52:08;14.6;51
79467;SHT30;68933;49.726;9.226;2023-06-05T00:54:21;14.6;51
79467;SHT30;68933;49.726;9.226;2023-06-05T00:56:34;14.6;51
79467;SHT30;68933;49.726;9.226;2023-06-05T00:58:47;14.4;52
79467;SHT30;68933;49.726;9.226;2023-06-05T01:01:00;14.4;52
79467;SHT30;68933;49.726;9.226;2023-06-05T01:03:13;14.4;52
79467;SHT30;68933;49.726;9.226;2023-06-05T01:05:26;14.4;52
79467;SHT30;68933;49.726;9.226;2023-06-05T01:07:39;14.4;52
79467;SHT30;68933;49.726;9.226;2023-06-05T01:09:52;14.4;52
79467;SHT30;68933;49.726;9.226;2023-06-05T01:12:05;14.3;52
79467;SHT30;68933;49.726;9.226;2023-06-05T01:14:18;14.3;52
79467;SHT30;68933;49.726;9.226;2023-06-05T01:16:31;14.3;52
79467;SHT30;68933;49.726;9.226;2023-06-05T01:18:44;14.2;52
79467;SHT30;68933;49.726;9.226;2023-06-05T01:20:59;14.2;52
79467;SHT30;68933;49.726;9.226;2023-06-05T01:23:10;14.2;52
79467;SHT30;68933;49.726;9.226;2023-06-05T01:25:23;14.2;52
79467;SHT30;68933;49.726;9.226;2023-06-05T01:27:37;14.2;52
79467;SHT30;68933;49.726;9.226;2023-06-05T01:29:51;14.1;52
79467;SHT30;68933;49.726;9.226;2023-06-05T01:32:02;14.1;52
79467;SHT30;68933;49.726;9.226;2023-06-05T01:34:15;14.1;52
79467;SHT30;68933;49.726;9.226;2023-06-05T01:36:28;14.1;52
79467;SHT30;68933;49.726;9.226;2023-06-05T01:38:41;14.1;52
79467;SHT30;68933;49.726;9.226;2023-06-05T01:40:54;14.1;52
79467;SHT30;68933;49.726;9.226;2023-06-05T01:43:07;14.1;52
79467;SHT30;68933;49.726;9.226;2023-06-05T01:45:20;14;52
79467;SHT30;68933;49.726;9.226;2023-06-05T01:47:33;14;52
79467;SHT30;68933;49.726;9.226;2023-06-05T01:49:46;13.9;52
79467;SHT30;68933;49.726;9.226;2023-06-05T01:51:59;13.9;52
79467;SHT30;68933;49.726;9.226;2023-06-05T01:54:12;13.9;52
79467;SHT30;68933;49.726;9.226;2023-06-05T01:56:25;13.8;53
79467;SHT30;68933;49.726;9.226;2023-06-05T01:58:38;13.8;53
79467;SHT30;68933;49.726;9.226;2023-06-05T02:00:51;13.7;53
79467;SHT30;68933;49.726;9.226;2023-06-05T02:03:04;13.7;53
79467;SHT30;68933;49.726;9.226;2023-06-05T02:05:17;13.7;53
79467;SHT30;68933;49.726;9.226;2023-06-05T02:07:30;13.7;53
79467;SHT30;68933;49.726;9.226;2023-06-05T02:09:43;13.7;53
79467;SHT30;68933;49.726;9.226;2023-06-05T02:11:56;13.7;53
79467;SHT30;68933;49.726;9.226;2023-06-05T02:14:09;13.7;53
79467;SHT30;68933;49.726;9.226;2023-06-05T02:16:22;13.6;53
79467;SHT30;68933;49.726;9.226;2023-06-05T02:18:35;13.6;53
79467;SHT30;68933;49.726;9.226;2023-06-05T02:20:52;13.5;53
79467;SHT30;68933;49.726;9.226;2023-06-05T02:23:01;13.5;53
79467;SHT30;68933;49.726;9.226;2023-06-05T02:25:14;13.5;53
79467;SHT30;68933;49.726;9.226;2023-06-05T02:27:27;13.5;53
79467;SHT30;68933;49.726;9.226;2023-06-05T02:29:40;13.5;53
79467;SHT30;68933;49.726;9.226;2023-06-05T02:31:53;13.4;55
79467;SHT30;68933;49.726;9.226;2023-06-05T02:34:06;13.4;55
79467;SHT30;68933;49.726;9.226;2023-06-05T02:36:19;13.3;55
79467;SHT30;68933;49.726;9.226;2023-06-05T02:38:32;13.3;55
79467;SHT30;68933;49.726;9.226;2023-06-05T02:40:45;13.3;55
79467;SHT30;68933;49.726;9.226;2023-06-05T02:42:58;13.3;55
79467;SHT30;68933;49.726;9.226;2023-06-05T02:45:11;13.3;55
79467;SHT30;68933;49.726;9.226;2023-06-05T02:47:24;13.2;55
79467;SHT30;68933;49.726;9.226;2023-06-05T02:49:37;13.2;55
79467;SHT30;68933;49.726;9.226;2023-06-05T02:51:50;13.2;55
79467;SHT30;68933;49.726;9.226;2023-06-05T02:54:03;13.2;55
79467;SHT30;68933;49.726;9.226;2023-06-05T02:56:16;13.2;55
79467;SHT30;68933;49.726;9.226;2023-06-05T02:58:29;13.3;55
79467;SHT30;68933;49.726;9.226;2023-06-05T03:00:42;13.3;55
79467;SHT30;68933;49.726;9.226;2023-06-05T03:02:55;13.2;55
79467;SHT30;68933;49.726;9.226;2023-06-05T03:05:08;13.2;55
79467;SHT30;68933;49.726;9.226;2023-06-05T03:07:21;13.1;55
79467;SHT30;68933;49.726;9.226;2023-06-05T03:09:34;13.1;55
79467;SHT30;68933;49.726;9.226;2023-06-05T03:11:47;13;55
79467;SHT30;68933;49.726;9.226;2023-06-05T03:14:00;13;55
79467;SHT30;68933;49.726;9.226;2023-06-05T03:16:13;12.9;55
79467;SHT30;68933;49.726;9.226;2023-06-05T03:18:26;12.9;55
79467;SHT30;68933;49.726;9.226;2023-06-05T03:20:39;12.9;55
79467;SHT30;68933;49.726;9.226;2023-06-05T03:22:52;12.9;55
79467;SHT30;68933;49.726;9.226;2023-06-05T03:25:05;12.9;55
79467;SHT30;68933;49.726;9.226;2023-06-05T03:27:18;12.9;55
79467;SHT30;68933;49.726;9.226;2023-06-05T03:29:31;12.9;55
79467;SHT30;68933;49.726;9.226;2023-06-05T03:31:44;12.8;55
79467;SHT30;68933;49.726;9.226;2023-06-05T03:33:57;12.8;55
79467;SHT30;68933;49.726;9.226;2023-06-05T03:36:10;12.8;55
79467;SHT30;68933;49.726;9.226;2023-06-05T03:38:23;12.8;55
79467;SHT30;68933;49.726;9.226;2023-06-05T03:40:36;12.8;55
79467;SHT30;68933;49.726;9.226;2023-06-05T03:42:49;12.7;55
79467;SHT30;68933;49.726;9.226;2023-06-05T03:45:02;12.7;55
79467;SHT30;68933;49.726;9.226;2023-06-05T03:47:15;12.7;55
79467;SHT30;68933;49.726;9.226;2023-06-05T03:49:28;12.7;55
79467;SHT30;68933;49.726;9.226;2023-06-05T03:51:41;12.7;55
79467;SHT30;68933;49.726;9.226;2023-06-05T03:53:54;12.7;55
79467;SHT30;68933;49.726;9.226;2023-06-05T03:56:07;12.6;56
79467;SHT30;68933;49.726;9.226;2023-06-05T03:58:20;12.6;56
79467;SHT30;68933;49.726;9.226;2023-06-05T04:00:33;12.6;56
79467;SHT30;68933;49.726;9.226;2023-06-05T04:02:46;12.6;56
79467;SHT30;68933;49.726;9.226;2023-06-05T04:04:59;12.6;56
79467;SHT30;68933;49.726;9.226;2023-06-05T04:07:12;12.6;56
79467;SHT30;68933;49.726;9.226;2023-06-05T04:09:25;12.6;56
79467;SHT30;68933;49.726;9.226;2023-06-05T04:11:39;12.6;56
79467;SHT30;68933;49.726;9.226;2023-06-05T04:13:51;12.6;56
79467;SHT30;68933;49.726;9.226;2023-06-05T04:16:04;12.6;56
79467;SHT30;68933;49.726;9.226;2023-06-05T04:18:17;12.5;56
79467;SHT30;68933;49.726;9.226;2023-06-05T04:20:30;12.5;56
79467;SHT30;68933;49.726;9.226;2023-06-05T04:22:43;12.4;56
79467;SHT30;68933;49.726;9.226;2023-06-05T04:24:56;12.4;56
79467;SHT30;68933;49.726;9.226;2023-06-05T04:27:09;12.4;56
79467;SHT30;68933;49.726;9.226;2023-06-05T04:29:22;12.4;56
79467;SHT30;68933;49.726;9.226;2023-06-05T04:31:35;12.4;56
79467;SHT30;68933;49.726;9.226;2023-06-05T04:33:48;12.4;56
79467;SHT30;68933;49.726;9.226;2023-06-05T04:36:01;12.4;56
79467;SHT30;68933;49.726;9.226;2023-06-05T04:38:14;12.4;56
79467;SHT30;68933;49.726;9.226;2023-06-05T04:40:27;12.4;56
79467;SHT30;68933;49.726;9.226;2023-06-05T04:42:40;12.4;56
79467;SHT30;68933;49.726;9.226;2023-06-05T04:44:56;12.4;56
79467;SHT30;68933;49.726;9.226;2023-06-05T04:47:06;12.4;56
79467;SHT30;68933;49.726;9.226;2023-06-05T04:49:19;12.4;56
79467;SHT30;68933;49.726;9.226;2023-06-05T04:51:32;12.4;56
79467;SHT30;68933;49.726;9.226;2023-06-05T04:53:45;12.5;56
79467;SHT30;68933;49.726;9.226;2023-06-05T04:55:58;12.5;56
79467;SHT30;68933;49.726;9.226;2023-06-05T04:58:11;12.5;56
79467;SHT30;68933;49.726;9.226;2023-06-05T05:00:24;12.6;56
79467;SHT30;68933;49.726;9.226;2023-06-05T05:02:37;12.6;56
79467;SHT30;68933;49.726;9.226;2023-06-05T05:04:50;12.7;56
79467;SHT30;68933;49.726;9.226;2023-06-05T05:07:03;12.7;56
79467;SHT30;68933;49.726;9.226;2023-06-05T05:09:16;12.7;56
79467;SHT30;68933;49.726;9.226;2023-06-05T05:11:29;12.7;56
79467;SHT30;68933;49.726;9.226;2023-06-05T05:13:42;12.7;56
79467;SHT30;68933;49.726;9.226;2023-06-05T05:15:55;12.8;56
79467;SHT30;68933;49.726;9.226;2023-06-05T05:18:08;12.8;56
79467;SHT30;68933;49.726;9.226;2023-06-05T05:20:21;12.9;56
79467;SHT30;68933;49.726;9.226;2023-06-05T05:22:34;12.9;56
79467;SHT30;68933;49.726;9.226;2023-06-05T05:24:47;12.9;56
79467;SHT30;68933;49.726;9.226;2023-06-05T05:27:00;12.9;57
79467;SHT30;68933;49.726;9.226;2023-06-05T05:29:13;12.9;57
79467;SHT30;68933;49.726;9.226;2023-06-05T05:31:26;13.2;56
79467;SHT30;68933;49.726;9.226;2023-06-05T05:33:39;13.2;56
79467;SHT30;68933;49.726;9.226;2023-06-05T05:35:52;13.3;56
79467;SHT30;68933;49.726;9.226;2023-06-05T05:38:05;13.3;56
79467;SHT30;68933;49.726;9.226;2023-06-05T05:40:18;13.4;56
79467;SHT30;68933;49.726;9.226;2023-06-05T05:42:31;13.4;56
79467;SHT30;68933;49.726;9.226;2023-06-05T05:44:44;13.4;56
79467;SHT30;68933;49.726;9.226;2023-06-05T05:46:57;13.6;56
79467;SHT30;68933;49.726;9.226;2023-06-05T05:49:10;13.6;56
79467;SHT30;68933;49.726;9.226;2023-06-05T05:51:23;13.9;56
79467;SHT30;68933;49.726;9.226;2023-06-05T05:53:36;13.9;56
79467;SHT30;68933;49.726;9.226;2023-06-05T05:55:49;13.9;55
79467;SHT30;68933;49.726;9.226;2023-06-05T05:58:02;13.9;55
79467;SHT30;68933;49.726;9.226;2023-06-05T06:00:15;13.9;55
79467;SHT30;68933;49.726;9.226;2023-06-05T06:02:28;14.2;53
79467;SHT30;68933;49.726;9.226;2023-06-05T06:04:41;14.2;53
79467;SHT30;68933;49.726;9.226;2023-06-05T06:06:54;14.4;52
79467;SHT30;68933;49.726;9.226;2023-06-05T06:09:07;14.4;52
79467;SHT30;68933;49.726;9.226;2023-06-05T06:11:20;14.6;52
79467;SHT30;68933;49.726;9.226;2023-06-05T06:13:33;14.6;52
79467;SHT30;68933;49.726;9.226;2023-06-05T06:15:46;14.6;52
79467;SHT30;68933;49.726;9.226;2023-06-05T06:17:59;14.8;52
79467;SHT30;68933;49.726;9.226;2023-06-05T06:20:12;14.8;52
79467;SHT30;68933;49.726;9.226;2023-06-05T06:22:25;15.2;52
79467;SHT30;68933;49.726;9.226;2023-06-05T06:24:38;15.2;52
79467;SHT30;68933;49.726;9.226;2023-06-05T06:26:51;15.3;52
79467;SHT30;68933;49.726;9.226;2023-06-05T06:29:04;15.3;52
79467;SHT30;68933;49.726;9.226;2023-06-05T06:31:17;15.6;51
79467;SHT30;68933;49.726;9.226;2023-06-05T06:33:30;15.6;51
79467;SHT30;68933;49.726;9.226;2023-06-05T06:35:43;15.9;50
79467;SHT30;68933;49.726;9.226;2023-06-05T06:37:56;15.9;50
79467;SHT30;68933;49.726;9.226;2023-06-05T06:40:09;16.1;49
79467;SHT30;68933;49.726;9.226;2023-06-05T06:42:22;16.1;49
79467;SHT30;68933;49.726;9.226;2023-06-05T06:44:35;16.1;49
79467;SHT30;68933;49.726;9.226;2023-06-05T06:46:48;16.3;48
79467;SHT30;68933;49.726;9.226;2023-06-05T06:49:01;16.3;48
79467;SHT30;68933;49.726;9.226;2023-06-05T06:51:14;16.4;48
79467;SHT30;68933;49.726;9.226;2023-06-05T06:53:27;16.4;48
79467;SHT30;68933;49.726;9.226;2023-06-05T06:55:40;16.7;46
79467;SHT30;68933;49.726;9.226;2023-06-05T06:57:53;16.7;46
79467;SHT30;68933;49.726;9.226;2023-06-05T07:00:06;17;46
79467;SHT30;68933;49.726;9.226;2023-06-05T07:02:19;17;46
79467;SHT30;68933;49.726;9.226;2023-06-05T07:04:32;17;46
79467;SHT30;68933;49.726;9.226;2023-06-05T07:06:45;17.2;46
79467;SHT30;68933;49.726;9.226;2023-06-05T07:08:58;17.5;46
79467;SHT30;68933;49.726;9.226;2023-06-05T07:11:11;17.5;46
79467;SHT30;68933;49.726;9.226;2023-06-05T07:13:24;17.5;46
79467;SHT30;68933;49.726;9.226;2023-06-05T07:15:37;17.7;46
79467;SHT30;68933;49.726;9.226;2023-06-05T07:17:50;17.7;46
79467;SHT30;68933;49.726;9.226;2023-06-05T07:20:03;18;45
79467;SHT30;68933;49.726;9.226;2023-06-05T07:22:16;18;45
79467;SHT30;68933;49.726;9.226;2023-06-05T07:24:29;18;45
79467;SHT30;68933;49.726;9.226;2023-06-05T07:26:42;18.4;44
79467;SHT30;68933;49.726;9.226;2023-06-05T07:28:55;18.4;44
79467;SHT30;68933;49.726;9.226;2023-06-05T07:31:08;18.7;44
79467;SHT30;68933;49.726;9.226;2023-06-05T07:33:21;18.7;44
79467;SHT30;68933;49.726;9.226;2023-06-05T07:35:34;18.7;44
79467;SHT30;68933;49.726;9.226;2023-06-05T07:37:47;19.2;41
79467;SHT30;68933;49.726;9.226;2023-06-05T07:40:00;19.2;41
79467;SHT30;68933;49.726;9.226;2023-06-05T07:42:13;19.5;41
79467;SHT30;68933;49.726;9.226;2023-06-05T07:44:26;19.5;41
79467;SHT30;68933;49.726;9.226;2023-06-05T07:46:39;19.5;41
79467;SHT30;68933;49.726;9.226;2023-06-05T07:48:52;19.7;41
79467;SHT30;68933;49.726;9.226;2023-06-05T07:51:05;19.7;41
79467;SHT30;68933;49.726;9.226;2023-06-05T07:53:18;20;40
79467;SHT30;68933;49.726;9.226;2023-06-05T07:55:31;20;40
79467;SHT30;68933;49.726;9.226;2023-06-05T07:57:44;20;40
79467;SHT30;68933;49.726;9.226;2023-06-05T07:59:57;20.5;38
79467;SHT30;68933;49.726;9.226;2023-06-05T08:02:10;20.5;38
79467;SHT30;68933;49.726;9.226;2023-06-05T08:04:23;20.9;38
79467;SHT30;68933;49.726;9.226;2023-06-05T08:06:36;20.9;38
79467;SHT30;68933;49.726;9.226;2023-06-05T08:08:49;21.1;37
79467;SHT30;68933;49.726;9.226;2023-06-05T08:11:02;21.1;37
79467;SHT30;68933;49.726;9.226;2023-06-05T08:13:15;21.1;37
79467;SHT30;68933;49.726;9.226;2023-06-05T08:15:28;21.5;37
79467;SHT30;68933;49.726;9.226;2023-06-05T08:17:41;21.5;37
79467;SHT30;68933;49.726;9.226;2023-06-05T08:21:06;21.8;36
79467;SHT30;68933;49.726;9.226;2023-06-05T08:23:18;21.8;36
79467;SHT30;68933;49.726;9.226;2023-06-05T08:25:31;22;36
79467;SHT30;68933;49.726;9.226;2023-06-05T08:27:44;22;36
79467;SHT30;68933;49.726;9.226;2023-06-05T08:29:57;22.6;36
79467;SHT30;68933;49.726;9.226;2023-06-05T08:32:10;22.6;36
79467;SHT30;68933;49.726;9.226;2023-06-05T08:34:23;22.6;36
79467;SHT30;68933;49.726;9.226;2023-06-05T08:36:36;23;36
79467;SHT30;68933;49.726;9.226;2023-06-05T08:38:49;23;36
79467;SHT30;68933;49.726;9.226;2023-06-05T08:41:03;23.4;34
79467;SHT30;68933;49.726;9.226;2023-06-05T08:43:15;23.4;34
79467;SHT30;68933;49.726;9.226;2023-06-05T08:45:30;23.4;34
79467;SHT30;68933;49.726;9.226;2023-06-05T08:47:41;23.6;34
79467;SHT30;68933;49.726;9.226;2023-06-05T08:49:54;23.6;34
79467;SHT30;68933;49.726;9.226;2023-06-05T08:52:08;23.9;34
79467;SHT30;68933;49.726;9.226;2023-06-05T08:54:20;23.9;34
79467;SHT30;68933;49.726;9.226;2023-06-05T08:56:33;24.3;33
79467;SHT30;68933;49.726;9.226;2023-06-05T08:58:46;24.3;33
79467;SHT30;68933;49.726;9.226;2023-06-05T09:00:59;24.4;34
79467;SHT30;68933;49.726;9.226;2023-06-05T09:03:12;24.4;34
79467;SHT30;68933;49.726;9.226;2023-06-05T09:05:25;24.4;34
79467;SHT30;68933;49.726;9.226;2023-06-05T09:07:38;24.8;33
79467;SHT30;68933;49.726;9.226;2023-06-05T09:09:51;24.8;33
79467;SHT30;68933;49.726;9.226;2023-06-05T09:12:05;25.1;33
79467;SHT30;68933;49.726;9.226;2023-06-05T09:14:19;25.1;33
79467;SHT30;68933;49.726;9.226;2023-06-05T09:16:32;25.4;33
79467;SHT30;68933;49.726;9.226;2023-06-05T09:18:51;25.4;33
79467;SHT30;68933;49.726;9.226;2023-06-05T09:20:56;25.4;33
79467;SHT30;68933;49.726;9.226;2023-06-05T09:23:25;25.8;33
79467;SHT30;68933;49.726;9.226;2023-06-05T09:25:22;25.8;33
79467;SHT30;68933;49.726;9.226;2023-06-05T09:27:35;26.3;33
79467;SHT30;68933;49.726;9.226;2023-06-05T09:29:48;26.3;33
79467;SHT30;68933;49.726;9.226;2023-06-05T09:32:02;26.4;33
79467;SHT30;68933;49.726;9.226;2023-06-05T09:34:20;26.4;33
79467;SHT30;68933;49.726;9.226;2023-06-05T09:36:27;26.5;33
79467;SHT30;68933;49.726;9.226;2023-06-05T09:38:40;26.5;33
79467;SHT30;68933;49.726;9.226;2023-06-05T09:40:57;26.7;31
79467;SHT30;68933;49.726;9.226;2023-06-05T09:43:12;26.7;31
79467;SHT30;68933;49.726;9.226;2023-06-05T09:45:19;26.7;31
79467;SHT30;68933;49.726;9.226;2023-06-05T09:47:32;26.8;30
79467;SHT30;68933;49.726;9.226;2023-06-05T09:49:45;26.8;30
79467;SHT30;68933;49.726;9.226;2023-06-05T09:51:59;27.1;30
79467;SHT30;68933;49.726;9.226;2023-06-05T09:54:11;27.1;30
79467;SHT30;68933;49.726;9.226;2023-06-05T09:56:24;27.2;29
79467;SHT30;68933;49.726;9.226;2023-06-05T09:58:37;27.2;29
79467;SHT30;68933;49.726;9.226;2023-06-05T10:00:50;27.4;28
79467;SHT30;68933;49.726;9.226;2023-06-05T10:03:03;27.4;28
79467;SHT30;68933;49.726;9.226;2023-06-05T10:05:16;27.4;28
79467;SHT30;68933;49.726;9.226;2023-06-05T10:07:30;27.7;28
79467;SHT30;68933;49.726;9.226;2023-06-05T10:09:43;27.7;28
79467;SHT30;68933;49.726;9.226;2023-06-05T10:11:55;27.8;26
79467;SHT30;68933;49.726;9.226;2023-06-05T10:14:08;27.8;26
79467;SHT30;68933;49.726;9.226;2023-06-05T10:16:21;28;26
79467;SHT30;68933;49.726;9.226;2023-06-05T10:18:34;28;26
79467;SHT30;68933;49.726;9.226;2023-06-05T10:20:47;28;25
79467;SHT30;68933;49.726;9.226;2023-06-05T10:23:00;28;25
79467;SHT30;68933;49.726;9.226;2023-06-05T10:25:13;28.1;25
79467;SHT30;68933;49.726;9.226;2023-06-05T10:27:38;28.1;25
79467;SHT30;68933;49.726;9.226;2023-06-05T10:29:43;28.6;25
79467;SHT30;68933;49.726;9.226;2023-06-05T10:31:52;28.6;25
79467;SHT30;68933;49.726;9.226;2023-06-05T10:34:08;28.6;25
79467;SHT30;68933;49.726;9.226;2023-06-05T10:36:23;28.8;25
79467;SHT30;68933;49.726;9.226;2023-06-05T10:38:31;28.8;25
79467;SHT30;68933;49.726;9.226;2023-06-05T10:40:46;28.8;25
79467;SHT30;68933;49.726;9.226;2023-06-05T10:43:23;28.8;25
79467;SHT30;68933;49.726;9.226;2023-06-05T10:45:10;28.8;25
79467;SHT30;68933;49.726;9.226;2023-06-05T10:47:55;28.9;24
79467;SHT30;68933;49.726;9.226;2023-06-05T10:49:36;28.9;24
79467;SHT30;68933;49.726;9.226;2023-06-05T10:51:49;29.1;24
79467;SHT30;68933;49.726;9.226;2023-06-05T10:54:02;29.1;24
79467;SHT30;68933;49.726;9.226;2023-06-05T10:56:52;29.1;24
79467;SHT30;68933;49.726;9.226;2023-06-05T10:58:28;29.3;24
79467;SHT30;68933;49.726;9.226;2023-06-05T11:02:21;29.3;24
79467;SHT30;68933;49.726;9.226;2023-06-05T11:02:54;29.3;22
79467;SHT30;68933;49.726;9.226;2023-06-05T11:05:08;29.3;22
79467;SHT30;68933;49.726;9.226;2023-06-05T11:07:21;29.3;22
79467;SHT30;68933;49.726;9.226;2023-06-05T11:09:33;29.6;24
79467;SHT30;68933;49.726;9.226;2023-06-05T11:11:54;29.6;24
79467;SHT30;68933;49.726;9.226;2023-06-05T11:13:59;29.9;22
79467;SHT30;68933;49.726;9.226;2023-06-05T11:16:24;29.9;22
79467;SHT30;68933;49.726;9.226;2023-06-05T11:18:26;29.9;22
79467;SHT30;68933;49.726;9.226;2023-06-05T11:20:54;29.9;22
79467;SHT30;68933;49.726;9.226;2023-06-05T11:23:06;29.9;22
79467;SHT30;68933;49.726;9.226;2023-06-05T11:25:36;30;22
79467;SHT30;68933;49.726;9.226;2023-06-05T11:27:40;30;22
79467;SHT30;68933;49.726;9.226;2023-06-05T11:29:30;30.3;22
79467;SHT30;68933;49.726;9.226;2023-06-05T11:31:44;30.3;22
79467;SHT30;68933;49.726;9.226;2023-06-05T11:33:56;30.5;22
79467;SHT30;68933;49.726;9.226;2023-06-05T11:36:09;30.5;22
79467;SHT30;68933;49.726;9.226;2023-06-05T11:38:22;30.5;22
79467;SHT30;68933;49.726;9.226;2023-06-05T11:40:35;30.6;21
79467;SHT30;68933;49.726;9.226;2023-06-05T11:42:48;30.6;21
79467;SHT30;68933;49.726;9.226;2023-06-05T11:45:01;30.8;22
79467;SHT30;68933;49.726;9.226;2023-06-05T11:47:22;30.8;22
79467;SHT30;68933;49.726;9.226;2023-06-05T11:49:27;31.1;22
79467;SHT30;68933;49.726;9.226;2023-06-05T11:51:40;31.1;22
79467;SHT30;68933;49.726;9.226;2023-06-05T11:53:53;31.1;22
79467;SHT30;68933;49.726;9.226;2023-06-05T11:56:11;31.1;22
79467;SHT30;68933;49.726;9.226;2023-06-05T11:58:20;31.1;22
79467;SHT30;68933;49.726;9.226;2023-06-05T12:00:32;31.1;22
79467;SHT30;68933;49.726;9.226;2023-06-05T12:02:45;31.1;22
79467;SHT30;68933;49.726;9.226;2023-06-05T12:04:58;31.3;21
79467;SHT30;68933;49.726;9.226;2023-06-05T12:07:11;31.3;21
79467;SHT30;68933;49.726;9.226;2023-06-05T12:09:24;31.3;21
79467;SHT30;68933;49.726;9.226;2023-06-05T12:11:37;31.3;21
79467;SHT30;68933;49.726;9.226;2023-06-05T12:13:51;31.3;21
79467;SHT30;68933;49.726;9.226;2023-06-05T12:16:03;31.4;21
79467;SHT30;68933;49.726;9.226;2023-06-05T12:18:16;31.4;21
79467;SHT30;68933;49.726;9.226;2023-06-05T12:20:29;31.5;21
79467;SHT30;68933;49.726;9.226;2023-06-05T12:22:42;31.5;21
79467;SHT30;68933;49.726;9.226;2023-06-05T12:24:55;31.7;21
79467;SHT30;68933;49.726;9.226;2023-06-05T12:27:08;31.7;21
79467;SHT30;68933;49.726;9.226;2023-06-05T12:29:22;32;21
79467;SHT30;68933;49.726;9.226;2023-06-05T12:31:35;32;21
79467;SHT30;68933;49.726;9.226;2023-06-05T12:33:47;32;21
79467;SHT30;68933;49.726;9.226;2023-06-05T12:36:02;32.1;21
79467;SHT30;68933;49.726;9.226;2023-06-05T12:38:13;32.1;21
79467;SHT30;68933;49.726;9.226;2023-06-05T12:40:26;32.1;20
79467;SHT30;68933;49.726;9.226;2023-06-05T12:42:40;32.1;20
79467;SHT30;68933;49.726;9.226;2023-06-05T12:44:53;32.3;21
79467;SHT30;68933;49.726;9.226;2023-06-05T12:47:05;32.3;21
79467;SHT30;68933;49.726;9.226;2023-06-05T12:49:18;32.3;20
79467;SHT30;68933;49.726;9.226;2023-06-05T12:51:31;32.3;20
79467;SHT30;68933;49.726;9.226;2023-06-05T12:53:44;32.3;20
79467;SHT30;68933;49.726;9.226;2023-06-05T12:55:57;32.6;20
79467;SHT30;68933;49.726;9.226;2023-06-05T12:58:10;32.6;20
79467;SHT30;68933;49.726;9.226;2023-06-05T13:00:23;32.5;20
79467;SHT30;68933;49.726;9.226;2023-06-05T13:02:36;32.5;20
79467;SHT30;68933;49.726;9.226;2023-06-05T13:04:49;32.6;21
79467;SHT30;68933;49.726;9.226;2023-06-05T13:07:02;32.6;21
79467;SHT30;68933;49.726;9.226;2023-06-05T13:09:15;32.5;20
79467;SHT30;68933;49.726;9.226;2023-06-05T13:11:28;32.5;20
79467;SHT30;68933;49.726;9.226;2023-06-05T13:13:41;32.6;20
79467;SHT30;68933;49.726;9.226;2023-06-05T13:15:54;32.6;20
79467;SHT30;68933;49.726;9.226;2023-06-05T13:18:07;32.6;20
79467;SHT30;68933;49.726;9.226;2023-06-05T13:20:20;32.6;20
79467;SHT30;68933;49.726;9.226;2023-06-05T13:22:33;32.6;20
79467;SHT30;68933;49.726;9.226;2023-06-05T13:24:46;32.6;20
79467;SHT30;68933;49.726;9.226;2023-06-05T13:26:59;32.6;20
79467;SHT30;68933;49.726;9.226;2023-06-05T13:29:12;32.6;20
79467;SHT30;68933;49.726;9.226;2023-06-05T13:31:25;32.6;20
79467;SHT30;68933;49.726;9.226;2023-06-05T13:33:38;32.6;20
79467;SHT30;68933;49.726;9.226;2023-06-05T13:35:51;32.6;20
79467;SHT30;68933;49.726;9.226;2023-06-05T13:38:04;32.6;20
79467;SHT30;68933;49.726;9.226;2023-06-05T13:40:17;32.7;18
79467;SHT30;68933;49.726;9.226;2023-06-05T13:42:30;32.7;18
79467;SHT30;68933;49.726;9.226;2023-06-05T13:44:43;32.7;18
79467;SHT30;68933;49.726;9.226;2023-06-05T13:46:56;32.6;20
79467;SHT30;68933;49.726;9.226;2023-06-05T13:49:09;32.6;20
79467;SHT30;68933;49.726;9.226;2023-06-05T13:51:22;32.6;20
79467;SHT30;68933;49.726;9.226;2023-06-05T13:53:35;32.6;20
79467;SHT30;68933;49.726;9.226;2023-06-05T13:55:48;32.6;20
79467;SHT30;68933;49.726;9.226;2023-06-05T13:58:01;32.7;20
79467;SHT30;68933;49.726;9.226;2023-06-05T14:00:14;32.7;20
79467;SHT30;68933;49.726;9.226;2023-06-05T14:02:27;32.8;20
79467;SHT30;68933;49.726;9.226;2023-06-05T14:04:40;32.8;20
79467;SHT30;68933;49.726;9.226;2023-06-05T14:06:53;32.9;20
79467;SHT30;68933;49.726;9.226;2023-06-05T14:09:06;32.9;20
79467;SHT30;68933;49.726;9.226;2023-06-05T14:11:19;32.9;20
79467;SHT30;68933;49.726;9.226;2023-06-05T14:13:32;32.9;20
79467;SHT30;68933;49.726;9.226;2023-06-05T14:15:45;32.9;20
79467;SHT30;68933;49.726;9.226;2023-06-05T14:18:00;33.3;20
79467;SHT30;68933;49.726;9.226;2023-06-05T14:20:11;33.3;20
79467;SHT30;68933;49.726;9.226;2023-06-05T14:22:24;33.3;20
79467;SHT30;68933;49.726;9.226;2023-06-05T14:24:38;33.4;18
79467;SHT30;68933;49.726;9.226;2023-06-05T14:26:52;33.4;18
79467;SHT30;68933;49.726;9.226;2023-06-05T14:29:03;33.4;18
79467;SHT30;68933;49.726;9.226;2023-06-05T14:31:16;33.4;18
79467;SHT30;68933;49.726;9.226;2023-06-05T14:33:29;33.5;18
79467;SHT30;68933;49.726;9.226;2023-06-05T14:35:42;33.5;18
79467;SHT30;68933;49.726;9.226;2023-06-05T14:37:55;33.5;18
79467;SHT30;68933;49.726;9.226;2023-06-05T14:40:08;33.4;18
79467;SHT30;68933;49.726;9.226;2023-06-05T14:42:21;33.4;18
79467;SHT30;68933;49.726;9.226;2023-06-05T14:44:34;33.6;18
79467;SHT30;68933;49.726;9.226;2023-06-05T14:46:47;33.6;18
79467;SHT30;68933;49.726;9.226;2023-06-05T14:49:00;34.1;18
79467;SHT30;68933;49.726;9.226;2023-06-05T14:51:13;34.1;18
79467;SHT30;68933;49.726;9.226;2023-06-05T14:53:26;34.3;18
79467;SHT30;68933;49.726;9.226;2023-06-05T14:55:39;34.3;18
79467;SHT30;68933;49.726;9.226;2023-06-05T14:57:52;34.3;18
79467;SHT30;68933;49.726;9.226;2023-06-05T15:00:05;34.3;18